Terminal Aerodrome Forecast
Issued by NWS

Home | Current Version | Previous Version | Text Only | Print | Product List | Glossary On
Versions: 1 2 3 4 5 6 7 8 9 10 11 12 13 14 15 16
000
FTUS45 KPIH 080151 AAA
TAFSUN
TAF AMD
KSUN 080151Z 0802/0824 32011KT P6SM VCSH SCT070 BKN130
     FM080400 32008KT P6SM VCSH SCT090 BKN130
     FM081900 12008KT P6SM VCTS SCT060CB BKN120
      AMD LTD TO CLD VIS AND WIND 0805/0813=

USA.gov is the U.S. government's official web portal to all federal, state and local government web resources and services.